createdAt,value
2022-11-25T00:01:16.784Z,7.07
2022-11-25T00:03:44.053Z,7.13
2022-11-25T00:06:10.908Z,7.10
2022-11-25T00:08:37.728Z,7.00
2022-11-25T00:11:04.944Z,6.68
2022-11-25T00:13:32.262Z,6.10
2022-11-25T00:16:03.110Z,6.90
2022-11-25T00:18:30.064Z,6.75
2022-11-25T00:20:56.766Z,7.00
2022-11-25T00:23:23.346Z,7.15
2022-11-25T00:25:50.072Z,7.75
2022-11-25T00:28:18.414Z,7.47
2022-11-25T00:30:45.382Z,7.38
2022-11-25T00:33:11.939Z,7.72
2022-11-25T00:35:38.567Z,7.50
2022-11-25T00:38:05.110Z,7.85
2022-11-25T00:40:31.709Z,7.85
2022-11-25T00:43:16.855Z,7.25
2022-11-25T00:45:43.448Z,7.68
2022-11-25T00:48:10.019Z,6.72
2022-11-25T00:50:36.624Z,7.30
2022-11-25T00:53:03.192Z,6.88
2022-11-25T00:55:49.747Z,7.13
2022-11-25T00:58:16.329Z,7.35
2022-11-25T01:00:42.957Z,7.28
2022-11-25T01:03:10.940Z,6.90
2022-11-25T01:05:37.572Z,6.28
2022-11-25T01:08:04.294Z,6.50
2022-11-25T01:10:30.906Z,6.65
2022-11-25T01:12:57.497Z,6.93
2022-11-25T01:15:24.097Z,6.50
2022-11-25T01:17:50.665Z,7.18
2022-11-25T01:20:17.276Z,6.60
2022-11-25T01:22:43.844Z,6.32
2022-11-25T01:25:11.182Z,5.82
2022-11-25T01:27:43.023Z,5.90
2022-11-25T01:30:10.130Z,5.38
2022-11-25T01:32:36.799Z,5.93
2022-11-25T01:35:03.677Z,5.88
2022-11-25T01:37:30.229Z,5.63
2022-11-25T01:39:56.830Z,5.72
2022-11-25T01:42:23.400Z,5.50
2022-11-25T01:45:28.401Z,5.60
2022-11-25T01:47:58.083Z,5.20
2022-11-25T01:50:24.794Z,4.90
2022-11-25T01:52:52.015Z,5.13
2022-11-25T01:55:29.845Z,4.82
2022-11-25T01:58:03.036Z,4.50
2022-11-25T02:02:56.196Z,4.65
2022-11-25T02:05:33.775Z,5.28
2022-11-25T02:08:00.759Z,4.75
2022-11-25T02:10:29.562Z,5.03
2022-11-25T02:12:56.178Z,4.50
2022-11-25T02:15:22.961Z,4.95
2022-11-25T02:17:49.591Z,4.45
2022-11-25T02:20:21.474Z,5.15
2022-11-25T02:23:14.993Z,5.03
2022-11-25T02:25:41.869Z,4.60
2022-11-25T02:28:19.299Z,5.00
2022-11-25T02:30:46.335Z,4.90
2022-11-25T02:33:13.572Z,4.78
2022-11-25T02:36:03.818Z,4.18
2022-11-25T02:38:38.179Z,4.93
2022-11-25T02:41:12.290Z,4.80
2022-11-25T02:43:39.209Z,4.88
2022-11-25T02:46:08.723Z,4.57
2022-11-25T02:49:07.527Z,4.45
2022-11-25T02:51:27.062Z,4.80
2022-11-25T02:53:53.997Z,5.25
2022-11-25T02:56:22.011Z,5.05
2022-11-25T02:58:48.595Z,4.57
2022-11-25T03:01:15.306Z,5.38
2022-11-25T03:03:42.089Z,4.10
2022-11-25T03:06:09.055Z,4.80
2022-11-25T03:08:36.649Z,4.10
2022-11-25T03:11:03.246Z,4.60
2022-11-25T03:13:29.948Z,5.00
2022-11-25T03:15:56.511Z,5.25
2022-11-25T03:18:23.335Z,4.90
2022-11-25T03:20:56.359Z,4.90
2022-11-25T03:23:23.136Z,4.65
2022-11-25T03:25:50.063Z,4.95
2022-11-25T03:28:16.653Z,4.15
2022-11-25T03:30:43.750Z,4.70
2022-11-25T03:33:10.382Z,4.47
2022-11-25T03:35:37.013Z,4.50
2022-11-25T03:38:03.622Z,4.60
2022-11-25T03:40:30.219Z,4.70
2022-11-25T03:42:56.828Z,4.28
2022-11-25T03:45:23.488Z,4.75
2022-11-25T03:47:50.159Z,4.68
2022-11-25T03:50:16.868Z,4.00
2022-11-25T03:52:43.457Z,4.18
2022-11-25T03:55:12.661Z,4.65
2022-11-25T03:57:39.371Z,4.53
2022-11-25T04:00:06.804Z,5.40
2022-11-25T04:02:34.612Z,4.80
2022-11-25T04:05:01.352Z,4.63
2022-11-25T04:07:27.993Z,4.00
2022-11-25T04:09:54.625Z,5.18
2022-11-25T04:12:39.925Z,4.53
2022-11-25T04:15:07.009Z,4.38
2022-11-25T04:17:33.623Z,4.70
2022-11-25T04:20:00.200Z,5.65
2022-11-25T04:22:26.740Z,5.53
2022-11-25T04:24:53.378Z,4.80
2022-11-25T04:27:20.612Z,5.22
2022-11-25T04:29:47.381Z,4.90
2022-11-25T04:32:13.969Z,5.32
2022-11-25T04:34:40.576Z,4.45
2022-11-25T04:37:07.127Z,4.82
2022-11-25T04:39:33.758Z,5.15
2022-11-25T04:42:18.827Z,5.10
2022-11-25T04:45:01.030Z,5.72
2022-11-25T04:47:32.200Z,5.43
2022-11-25T04:49:59.224Z,5.45
2022-11-25T04:52:26.187Z,6.20
2022-11-25T04:54:52.969Z,6.15
2022-11-25T04:57:19.735Z,6.28
2022-11-25T04:59:46.570Z,5.55
2022-11-25T05:02:20.237Z,5.97
2022-11-25T05:04:48.507Z,6.00
2022-11-25T05:07:16.784Z,4.90
2022-11-25T05:09:43.611Z,5.00
2022-11-25T05:12:13.318Z,5.18
2022-11-25T05:14:39.949Z,4.60
2022-11-25T05:17:07.371Z,4.35
2022-11-25T05:19:36.081Z,5.07
2022-11-25T05:22:02.697Z,4.72
2022-11-25T05:24:29.286Z,4.72
2022-11-25T05:26:55.990Z,5.35
2022-11-25T05:29:22.668Z,4.90
2022-11-25T05:31:49.254Z,5.55
2022-11-25T05:34:15.863Z,6.03
2022-11-25T05:36:42.437Z,5.70
2022-11-25T05:39:09.026Z,5.45
2022-11-25T05:41:35.607Z,6.03
2022-11-25T05:44:02.354Z,5.43
2022-11-25T05:46:29.187Z,5.43
2022-11-25T05:48:56.252Z,4.97
2022-11-25T05:51:23.755Z,5.93
2022-11-25T05:53:50.512Z,6.40
2022-11-25T05:56:17.321Z,6.00
2022-11-25T05:58:43.938Z,5.25
2022-11-25T06:01:11.693Z,5.93
2022-11-25T06:03:38.430Z,6.00
2022-11-25T06:06:05.974Z,6.22
2022-11-25T06:08:32.837Z,6.53
2022-11-25T06:10:59.449Z,6.68
2022-11-25T06:13:26.071Z,6.45
2022-11-25T06:15:52.788Z,6.25
2022-11-25T06:18:19.490Z,6.57
2022-11-25T06:20:46.288Z,6.45
2022-11-25T06:23:13.175Z,7.35
2022-11-25T06:25:39.746Z,7.30
2022-11-25T06:28:13.813Z,7.72
2022-11-25T06:30:40.526Z,7.80
2022-11-25T06:33:07.146Z,6.63
2022-11-25T06:35:33.751Z,6.40
2022-11-25T06:38:00.378Z,6.13
2022-11-25T06:40:27.218Z,6.03
2022-11-25T06:42:53.820Z,6.97
2022-11-25T06:45:20.495Z,6.60
2022-11-25T06:47:47.381Z,6.78
2022-11-25T06:50:14.180Z,6.30
2022-11-25T06:52:40.902Z,6.82
2022-11-25T06:55:07.848Z,5.78
2022-11-25T06:57:34.491Z,6.85
2022-11-25T07:00:01.196Z,6.38
2022-11-25T07:02:27.983Z,6.50
2022-11-25T07:04:54.626Z,5.85
2022-11-25T07:07:21.427Z,6.25
2022-11-25T07:09:48.213Z,6.45
2022-11-25T07:12:14.834Z,7.75
2022-11-25T07:14:41.478Z,7.75
2022-11-25T07:17:12.024Z,7.22
2022-11-25T07:19:39.140Z,8.23
2022-11-25T07:22:05.746Z,7.43
2022-11-25T07:24:33.997Z,6.40
2022-11-25T07:27:00.848Z,7.65
2022-11-25T07:32:15.320Z,6.93
2022-11-25T07:34:42.514Z,8.10
2022-11-25T07:37:09.138Z,8.27
2022-11-25T07:39:36.228Z,7.25
2022-11-25T07:42:03.174Z,8.60
2022-11-25T07:44:29.874Z,7.88
2022-11-25T07:46:57.039Z,7.30
2022-11-25T07:49:27.045Z,7.97
2022-11-25T07:51:55.625Z,10.05
2022-11-25T07:54:23.243Z,7.85
2022-11-25T07:56:50.888Z,6.97
2022-11-25T07:59:19.286Z,6.82
2022-11-25T08:01:46.130Z,7.10
2022-11-25T08:04:19.687Z,7.20
2022-11-25T08:06:48.913Z,7.65
2022-11-25T08:09:19.480Z,7.55
2022-11-25T08:11:46.993Z,7.10
2022-11-25T08:14:13.623Z,6.07
2022-11-25T08:16:40.199Z,5.72
2022-11-25T08:19:14.401Z,8.63
2022-11-25T08:21:43.080Z,12.35
2022-11-25T08:24:17.571Z,8.52
2022-11-25T08:26:44.278Z,6.55
2022-11-25T08:29:15.609Z,5.90
2022-11-25T08:31:43.237Z,5.50
2022-11-25T08:34:16.257Z,5.15
2022-11-25T08:36:47.924Z,6.70
2022-11-25T08:39:36.158Z,7.17
2022-11-25T08:42:05.516Z,6.05
2022-11-25T08:44:32.132Z,4.90
2022-11-25T08:47:16.507Z,5.45
2022-11-25T08:49:46.666Z,5.68
2022-11-25T08:52:13.652Z,11.52
2022-11-25T08:54:40.289Z,6.05
2022-11-25T08:57:18.863Z,5.82
2022-11-25T08:59:45.529Z,4.40
2022-11-25T09:02:13.373Z,4.88
2022-11-25T09:04:42.935Z,5.10
2022-11-25T09:07:09.594Z,5.72
2022-11-25T09:09:36.876Z,4.50
2022-11-25T09:12:04.054Z,5.53
2022-11-25T09:14:30.896Z,5.38
2022-11-25T09:16:57.516Z,4.78
2022-11-25T09:19:24.155Z,4.40
2022-11-25T09:21:50.806Z,4.82
2022-11-25T09:24:17.487Z,4.47
2022-11-25T09:26:45.123Z,4.45
2022-11-25T09:29:13.125Z,4.35
2022-11-25T09:31:40.435Z,4.10
2022-11-25T09:34:08.647Z,3.60
2022-11-25T09:36:35.319Z,3.17
2022-11-25T09:39:01.966Z,3.03
2022-11-25T09:42:14.980Z,2.78
2022-11-25T09:45:09.562Z,2.70
2022-11-25T09:47:54.269Z,3.03
2022-11-25T09:50:38.983Z,3.10
2022-11-25T09:53:15.817Z,2.88
2022-11-25T09:55:47.343Z,2.45
2022-11-25T09:58:36.413Z,2.40
2022-11-25T10:01:14.638Z,2.38
2022-11-25T10:03:54.739Z,3.03
2022-11-25T10:06:32.911Z,2.90
2022-11-25T10:09:07.323Z,3.25
2022-11-25T10:11:53.151Z,2.97
2022-11-25T10:14:33.674Z,3.05
2022-11-25T10:17:09.521Z,3.08
2022-11-25T10:19:42.090Z,2.92
2022-11-25T10:22:31.323Z,2.60
2022-11-25T10:25:00.428Z,3.33
2022-11-25T10:28:03.677Z,3.05
2022-11-25T10:30:53.515Z,2.78
2022-11-25T10:33:26.809Z,2.80
2022-11-25T10:35:53.303Z,2.88
2022-11-25T10:38:29.119Z,3.67
2022-11-25T10:40:55.901Z,3.40
2022-11-25T10:43:26.089Z,4.50
2022-11-25T10:46:18.608Z,2.88
2022-11-25T10:49:15.583Z,2.95
2022-11-25T10:51:49.459Z,3.70
2022-11-25T10:54:27.483Z,3.17
2022-11-25T10:56:59.759Z,3.67
2022-11-25T10:59:31.723Z,4.28
2022-11-25T11:02:13.211Z,3.20
2022-11-25T11:05:08.949Z,3.53
2022-11-25T11:07:46.314Z,3.40
2022-11-25T11:10:22.147Z,3.38
2022-11-25T11:13:05.923Z,3.72
2022-11-25T11:15:41.758Z,4.13
2022-11-25T11:18:28.039Z,3.58
2022-11-25T11:20:58.831Z,4.15
2022-11-25T11:23:26.584Z,4.88
2022-11-25T11:26:09.646Z,4.53
2022-11-25T11:28:37.166Z,5.28
2022-11-25T11:31:26.629Z,5.88
2022-11-25T11:33:58.971Z,5.55
2022-11-25T11:36:34.894Z,6.78
2022-11-25T11:39:07.422Z,5.47
2022-11-25T11:41:56.173Z,5.22
2022-11-25T11:44:26.453Z,5.55
2022-11-25T11:47:20.556Z,6.25
2022-11-25T11:49:50.226Z,5.57
2022-11-25T11:52:49.599Z,5.13
2022-11-25T11:55:37.675Z,5.18
2022-11-25T11:58:24.041Z,6.10
2022-11-25T12:01:00.623Z,4.50
2022-11-25T12:03:27.768Z,4.88
2022-11-25T12:05:57.326Z,4.40
2022-11-25T12:08:37.237Z,3.75
2022-11-25T12:11:09.934Z,4.38
2022-11-25T12:14:04.132Z,5.03
2022-11-25T12:16:34.594Z,4.63
2022-11-25T12:19:07.261Z,4.85
2022-11-25T12:21:45.635Z,4.90
2022-11-25T12:24:37.107Z,5.70
2022-11-25T12:27:11.323Z,5.30
2022-11-25T12:29:53.377Z,4.88
2022-11-25T12:32:40.943Z,6.43
2022-11-25T12:35:07.777Z,6.50
2022-11-25T12:38:03.531Z,6.25
2022-11-25T12:40:37.934Z,6.40
2022-11-25T12:43:27.584Z,7.18
2022-11-25T12:46:20.428Z,7.22
2022-11-25T12:48:47.171Z,6.47
2022-11-25T12:51:18.722Z,7.57
2022-11-25T12:54:04.078Z,6.80
2022-11-25T12:56:44.202Z,7.03
2022-11-25T12:59:38.744Z,6.95
2022-11-25T13:02:44.412Z,7.30
2022-11-25T13:08:17.597Z,7.15
2022-11-25T13:10:57.707Z,7.28
2022-11-25T13:13:42.476Z,7.60
2022-11-25T13:16:09.846Z,6.57
2022-11-25T13:18:40.234Z,6.65
2022-11-25T13:21:11.103Z,7.22
2022-11-25T13:23:49.258Z,7.57
2022-11-25T13:26:28.453Z,6.68
2022-11-25T13:28:55.964Z,7.85
2022-11-25T13:31:24.498Z,6.20
2022-11-25T13:34:15.940Z,6.18
2022-11-25T13:36:55.629Z,6.18
2022-11-25T13:39:36.296Z,5.35
2022-11-25T13:42:29.225Z,4.95
2022-11-25T13:44:59.362Z,7.03
2022-11-25T13:47:40.367Z,7.38
2022-11-25T13:50:21.681Z,7.55
2022-11-25T13:53:02.067Z,8.10
2022-11-25T13:55:40.537Z,8.43
2022-11-25T13:58:10.091Z,7.13
2022-11-25T14:00:36.628Z,7.13
2022-11-25T14:03:21.235Z,6.68
2022-11-25T14:06:24.959Z,6.82
2022-11-25T14:08:54.534Z,5.57
2022-11-25T14:11:29.834Z,6.45
2022-11-25T14:14:07.162Z,7.82
2022-11-25T14:16:49.025Z,8.15
2022-11-25T14:19:56.066Z,6.88
2022-11-25T14:22:44.599Z,8.38
2022-11-25T14:25:32.643Z,5.85
2022-11-25T14:28:07.756Z,5.82
2022-11-25T14:30:34.345Z,5.55
2022-11-25T14:33:03.364Z,5.07
2022-11-25T14:35:45.642Z,4.57
2022-11-25T14:38:16.639Z,5.38
2022-11-25T14:41:00.329Z,5.20
2022-11-25T14:43:27.221Z,5.18
2022-11-25T14:46:15.583Z,6.97
2022-11-25T14:48:43.492Z,4.40
2022-11-25T14:51:11.967Z,5.50
2022-11-25T14:53:47.807Z,3.53
2022-11-25T14:56:23.123Z,4.93
2022-11-25T14:58:51.360Z,3.88
2022-11-25T15:01:25.275Z,3.50
2022-11-25T15:04:04.979Z,5.38
2022-11-25T15:06:43.150Z,6.32
2022-11-25T15:09:25.683Z,4.75
2022-11-25T15:12:06.890Z,5.55
2022-11-25T15:14:35.370Z,4.00
2022-11-25T15:17:07.234Z,5.45
2022-11-25T15:19:34.517Z,5.22
2022-11-25T15:22:22.463Z,3.13
2022-11-25T15:24:55.104Z,4.40
2022-11-25T15:27:27.194Z,4.60
2022-11-25T15:29:54.862Z,3.25
2022-11-25T15:32:28.305Z,4.20
2022-11-25T15:34:56.444Z,3.72
2022-11-25T15:37:24.124Z,3.97
2022-11-25T15:39:51.435Z,3.40
2022-11-25T15:42:22.496Z,2.50
2022-11-25T15:45:07.142Z,2.72
2022-11-25T15:47:35.298Z,2.97
2022-11-25T15:50:01.947Z,2.58
2022-11-25T15:52:33.040Z,2.53
2022-11-25T15:55:08.310Z,2.65
2022-11-25T15:57:36.047Z,2.25
2022-11-25T16:00:15.812Z,2.20
2022-11-25T16:02:42.395Z,3.28
2022-11-25T16:05:15.079Z,2.88
2022-11-25T16:07:50.516Z,2.38
2022-11-25T16:10:24.169Z,3.10
2022-11-25T16:13:19.704Z,3.38
2022-11-25T16:15:52.122Z,5.22
2022-11-25T16:18:39.167Z,6.28
2022-11-25T16:21:08.232Z,5.25
2022-11-25T16:23:36.207Z,4.72
2022-11-25T16:26:04.372Z,7.75
2022-11-25T16:28:30.979Z,7.07
2022-11-25T16:30:59.405Z,5.95
2022-11-25T16:33:26.265Z,5.78
2022-11-25T16:35:52.916Z,7.05
2022-11-25T16:38:19.529Z,5.78
2022-11-25T16:40:46.495Z,5.35
2022-11-25T16:43:19.550Z,5.18
2022-11-25T16:48:17.325Z,4.82
2022-11-25T16:50:44.356Z,6.05
2022-11-25T16:53:10.941Z,5.28
2022-11-25T16:55:38.303Z,4.53
2022-11-25T16:58:05.640Z,3.67
2022-11-25T17:00:32.272Z,4.35
2022-11-25T17:02:58.915Z,5.03
2022-11-25T17:05:26.008Z,6.43
2022-11-25T17:07:52.906Z,9.80
2022-11-25T17:10:20.526Z,12.38
2022-11-25T17:12:47.967Z,15.57
2022-11-25T17:15:19.613Z,16.60
2022-11-25T17:17:47.932Z,18.02
2022-11-25T17:20:16.403Z,21.48
2022-11-25T17:22:43.009Z,20.42
2022-11-25T17:25:12.290Z,14.25
2022-11-25T17:27:39.151Z,20.80
2022-11-25T17:30:19.831Z,19.58
2022-11-25T17:32:46.738Z,18.52
2022-11-25T17:35:18.835Z,13.82
2022-11-25T17:37:45.983Z,10.55
2022-11-25T17:40:13.142Z,8.90
2022-11-25T17:42:40.198Z,9.30
2022-11-25T17:45:20.773Z,10.48
2022-11-25T17:47:47.525Z,11.35
2022-11-25T17:50:21.217Z,10.68
2022-11-25T17:52:48.196Z,8.90
2022-11-25T17:55:19.664Z,6.72
2022-11-25T17:57:47.407Z,6.95
2022-11-25T18:00:16.739Z,7.28
2022-11-25T18:02:43.422Z,11.60
2022-11-25T18:05:16.568Z,11.23
2022-11-25T18:10:17.894Z,15.13
2022-11-25T18:12:48.606Z,14.68
2022-11-25T18:15:20.804Z,9.52
2022-11-25T18:17:47.439Z,7.27
2022-11-25T18:20:18.441Z,7.80
2022-11-25T18:22:45.548Z,7.18
2022-11-25T18:25:16.358Z,12.57
2022-11-25T18:27:43.612Z,13.48
2022-11-25T18:30:20.009Z,15.43
2022-11-25T18:32:46.771Z,16.52
2022-11-25T18:35:24.588Z,16.45
2022-11-25T18:37:51.179Z,13.48
2022-11-25T18:40:17.971Z,12.32
2022-11-25T18:42:48.015Z,11.02
2022-11-25T18:45:20.085Z,7.93
2022-11-25T18:47:46.992Z,8.07
2022-11-25T18:50:18.597Z,6.93
2022-11-25T18:52:45.416Z,7.13
2022-11-25T18:55:15.289Z,6.47
2022-11-25T18:57:43.100Z,6.30
2022-11-25T19:00:31.761Z,5.88
2022-11-25T19:02:59.691Z,7.20
2022-11-25T19:05:29.924Z,5.50
2022-11-25T19:07:57.119Z,5.93
2022-11-25T19:10:27.400Z,8.48
2022-11-25T19:13:20.998Z,6.93
2022-11-25T19:18:17.278Z,5.88
2022-11-25T19:20:43.905Z,7.22
2022-11-25T19:23:25.353Z,6.57
2022-11-25T19:25:53.438Z,5.90
2022-11-25T19:28:20.064Z,6.32
2022-11-25T19:30:46.909Z,6.40
2022-11-25T19:33:24.204Z,5.55
2022-11-25T19:35:50.849Z,5.25
2022-11-25T19:38:21.467Z,5.22
2022-11-25T19:40:49.480Z,4.93
2022-11-25T19:43:16.122Z,5.15
2022-11-25T19:45:43.611Z,5.53
2022-11-25T19:48:15.011Z,4.75
2022-11-25T19:50:42.791Z,4.03
2022-11-25T19:53:23.365Z,4.43
2022-11-25T19:55:50.007Z,6.28
2022-11-25T19:58:16.603Z,4.82
2022-11-25T20:00:43.938Z,4.50
2022-11-25T20:03:21.003Z,5.80
2022-11-25T20:05:48.954Z,4.97
2022-11-25T20:08:24.904Z,4.80
2022-11-25T20:10:51.786Z,4.93
2022-11-25T20:13:18.937Z,4.50
2022-11-25T20:15:45.686Z,4.97
2022-11-25T20:18:18.634Z,5.05
2022-11-25T20:23:16.227Z,6.03
2022-11-25T20:25:44.757Z,6.05
2022-11-25T20:28:26.347Z,6.38
2022-11-25T20:30:53.709Z,6.55
2022-11-25T20:33:24.345Z,6.50
2022-11-25T20:35:52.996Z,7.32
2022-11-25T20:38:19.503Z,9.45
2022-11-25T20:40:46.512Z,9.60
2022-11-25T20:43:36.860Z,11.02
2022-11-25T20:46:03.718Z,10.25
2022-11-25T20:48:30.417Z,9.57
2022-11-25T20:51:01.152Z,10.27
2022-11-25T20:53:30.449Z,11.35
2022-11-25T20:55:57.024Z,10.35
2022-11-25T20:58:29.098Z,11.18
2022-11-25T21:00:57.695Z,14.50
2022-11-25T21:03:25.284Z,12.77
2022-11-25T21:05:52.584Z,14.20
2022-11-25T21:08:23.081Z,12.85
2022-11-25T21:10:51.447Z,14.20
2022-11-25T21:13:23.895Z,14.32
2022-11-25T21:15:53.251Z,14.50
2022-11-25T21:18:20.572Z,15.15
2022-11-25T21:20:48.338Z,14.40
2022-11-25T21:23:25.968Z,14.30
2022-11-25T21:25:52.586Z,14.35
2022-11-25T21:28:24.185Z,11.77
2022-11-25T21:30:50.842Z,10.95
2022-11-25T21:33:17.403Z,10.25
2022-11-25T21:35:46.029Z,7.20
2022-11-25T21:38:18.191Z,7.65
2022-11-25T21:40:47.020Z,6.40
2022-11-25T21:43:21.671Z,5.43
2022-11-25T21:45:49.993Z,5.15
2022-11-25T21:48:21.191Z,4.30
2022-11-25T21:50:47.968Z,5.82
2022-11-25T21:53:14.933Z,5.38
2022-11-25T21:55:42.032Z,4.75
2022-11-25T21:58:18.559Z,4.55
2022-11-25T22:00:47.748Z,4.00
2022-11-25T22:03:19.221Z,4.10
2022-11-25T22:05:46.410Z,4.50
2022-11-25T22:08:12.999Z,3.72
2022-11-25T22:10:40.372Z,3.72
2022-11-25T22:13:07.008Z,4.03
2022-11-25T22:15:34.276Z,3.65
2022-11-25T22:18:00.855Z,5.10
2022-11-25T22:20:39.126Z,4.28
2022-11-25T22:23:15.718Z,5.28
2022-11-25T22:25:42.493Z,4.25
2022-11-25T22:28:13.498Z,5.18
2022-11-25T22:30:40.354Z,10.00
2022-11-25T22:33:09.385Z,13.35
2022-11-25T22:35:35.996Z,6.55
2022-11-25T22:38:02.641Z,5.63
2022-11-25T22:40:29.280Z,5.45
2022-11-25T22:42:56.234Z,3.22
2022-11-25T22:45:33.142Z,2.70
2022-11-25T22:48:01.373Z,3.28
2022-11-25T22:50:31.652Z,3.65
2022-11-25T22:52:59.116Z,3.17
2022-11-25T22:55:33.064Z,3.00
2022-11-25T22:58:00.986Z,3.13
2022-11-25T23:00:29.489Z,2.95
2022-11-25T23:02:57.000Z,3.72
2022-11-25T23:05:32.581Z,4.38
2022-11-25T23:08:00.267Z,3.78
2022-11-25T23:10:29.344Z,4.65
2022-11-25T23:12:56.039Z,4.60
2022-11-25T23:15:23.347Z,5.03
2022-11-25T23:17:59.932Z,5.43
2022-11-25T23:20:30.104Z,5.93
2022-11-25T23:22:57.404Z,5.93
2022-11-25T23:25:24.045Z,5.35
2022-11-25T23:27:50.636Z,5.10
2022-11-25T23:30:20.238Z,5.47
2022-11-25T23:32:52.365Z,4.57
2022-11-25T23:35:20.703Z,5.00
2022-11-25T23:37:53.074Z,5.40
2022-11-25T23:40:21.879Z,5.43
2022-11-25T23:42:48.706Z,5.50
2022-11-25T23:45:17.443Z,5.85
2022-11-25T23:47:48.142Z,5.43
2022-11-25T23:50:32.332Z,6.05
2022-11-25T23:53:03.746Z,5.65
2022-11-25T23:55:34.967Z,6.00
2022-11-25T23:58:02.990Z,6.38
